Darstellungsparameter: Aktuell verwendete Einstellungen:
Skalierung der Graphiken ... ?
xyx+y,   Skalierungsfaktor:      Skalierung: Modus: x, Faktor: 1
Darstellungszeitraum ... ?
Vom - - bis: - -   Zeitraum: 30.09.2010 - 02.10.2010
Min/Max/Avg-Anzeige ... ?
Zeige MMA aktuell
Zeige MMA Monat
Zeige MMA alles
Zeige --A aktuell
Zeige --A Monat
Zeige --A alles
Keine MMA-Anzeige
MMA:
Average (ber die Originaldaten)
MMA-Basis: 23.02.2003 - 30.09.2020
Quicknavigation für Darstellung... ?
Tage:      1T, 2T, 3T, 5T -1T -2T -3T -5T +1T +2T +3T +5T
Wochen: 1W, 2W, 3W -1W -2W -3W +1W +2W +3W
Monate: 1M, 3M, 6M -1M -3M -6M +1M +3M +6M
Jahre:    1J, 3J, 5J, 10J -1J -3J -5J -10J +1J +3J +5J +10J
Nutze für die Darstellung ... ?
Originaldaten oder Mittelwerte auf ...
Stundenbasis Tagesbasis Wochenbasis
Monatsbasis Jahresbasis      Datenbasis: Original-Daten
Darstellen als:
Statistik (Auto) Statistik J:M      Darstellung:
Zur Graphik,    zurück zur Übersicht aller Sensoren.
 
Tabellarische Datenbersicht: ?
 
Sensor: Nr:Datum:Temp:Abs-Feuchte:Windchill:Wind:
Aussen-T/F 1 30-09-2010 00:02:06 12.4 C 8.52 g/m*3 12.4 C 0 km/h
2 30-09-2010 00:14:06 12.3 C 8.47 g/m*3 12.3 C 0 km/h
3 30-09-2010 00:26:06 12.1 C 8.36 g/m*3 12.1 C 0 km/h
4 30-09-2010 00:38:06 12.1 C 8.47 g/m*3 12.1 C 0 km/h
5 30-09-2010 00:50:06 11.9 C 8.37 g/m*3 11.9 C 0 km/h
6 30-09-2010 01:02:06 11.7 C 8.37 g/m*3 11.7 C 0 km/h
7 30-09-2010 01:14:06 11.8 C 7.89 g/m*3 11.8 C 0 km/h
8 30-09-2010 01:26:06 11.8 C 7.79 g/m*3 11.8 C 0 km/h
9 30-09-2010 01:38:06 12 C 7.46 g/m*3 12 C 0 km/h
10 30-09-2010 01:50:06 12 C 7.25 g/m*3 12 C 0 km/h
11 30-09-2010 02:02:06 12.1 C 7.4 g/m*3 12.1 C 0 km/h
12 30-09-2010 02:14:06 11.5 C 7.54 g/m*3 11.5 C 0 km/h
13 30-09-2010 02:26:06 11.4 C 7.7 g/m*3 11.4 C 0 km/h
14 30-09-2010 02:38:06 11.1 C 7.66 g/m*3 11.1 C 0 km/h
15 30-09-2010 02:50:07 11.2 C 7.8 g/m*3 11.2 C 0 km/h
16 30-09-2010 03:02:07 11.3 C 7.85 g/m*3 11.3 C 0 km/h
17 30-09-2010 03:14:07 11.2 C 7.91 g/m*3 11.2 C 0 km/h
18 30-09-2010 03:26:07 11 C 7.81 g/m*3 11 C 0 km/h
19 30-09-2010 03:38:07 11.1 C 7.86 g/m*3 11.1 C 0 km/h
20 30-09-2010 03:50:07 11.2 C 7.91 g/m*3 11.2 C 0 km/h
21 30-09-2010 04:02:07 11.3 C 7.96 g/m*3 11.3 C 0 km/h
22 30-09-2010 04:14:07 11.2 C 7.91 g/m*3 11.2 C 0 km/h
23 30-09-2010 04:26:07 11 C 7.81 g/m*3 11 C 0 km/h
24 30-09-2010 04:38:07 10.8 C 7.81 g/m*3 10.8 C 0 km/h
25 30-09-2010 04:50:07 10.8 C 7.91 g/m*3 10.8 C 0 km/h
Sensor: Nr:Datum:Temp:Abs-Feuchte:Windchill:Wind:
Aussen-T/F 26 30-09-2010 05:02:07 10.8 C 7.91 g/m*3 10.8 C 0 km/h
27 30-09-2010 05:14:07 10.8 C 7.91 g/m*3 10.8 C 0 km/h
28 30-09-2010 05:26:07 10.8 C 7.81 g/m*3 10.8 C 0 km/h
29 30-09-2010 05:38:07 10.7 C 7.76 g/m*3 10.7 C 0 km/h
30 30-09-2010 05:50:07 10.7 C 7.56 g/m*3 10.7 C 0 km/h
31 30-09-2010 06:02:07 10.8 C 7.31 g/m*3 10.8 C 0 km/h
32 30-09-2010 06:14:07 10.8 C 7.31 g/m*3 10.8 C 0 km/h
33 30-09-2010 06:26:07 10.7 C 7.27 g/m*3 10.7 C 0 km/h
34 30-09-2010 06:38:05 10.6 C 7.32 g/m*3 10.6 C 0 km/h
35 30-09-2010 06:50:02 10.6 C 7.42 g/m*3 10.6 C 0 km/h
36 30-09-2010 07:02:02 10.7 C 7.56 g/m*3 10.7 C 0 km/h
37 30-09-2010 07:14:02 10.7 C 7.66 g/m*3 10.7 C 0 km/h
38 30-09-2010 07:26:02 10.6 C 7.61 g/m*3 10.6 C 0 km/h
39 30-09-2010 07:38:02 10.6 C 7.71 g/m*3 10.6 C 0 km/h
40 30-09-2010 07:50:01 10.7 C 7.76 g/m*3 10.7 C 0 km/h
41 30-09-2010 08:02:01 10.7 C 7.66 g/m*3 10.7 C 0 km/h
42 30-09-2010 08:14:02 10.9 C 7.76 g/m*3 10.9 C 0 km/h
43 30-09-2010 08:26:01 10.9 C 7.76 g/m*3 10.9 C 0 km/h
44 30-09-2010 08:38:01 11 C 7.81 g/m*3 11 C 0 km/h
45 30-09-2010 08:50:01 11 C 7.81 g/m*3 11 C 0 km/h
46 30-09-2010 09:02:01 11.2 C 7.91 g/m*3 11.2 C 0 km/h
47 30-09-2010 09:14:01 11.4 C 8.01 g/m*3 11.4 C 0 km/h
48 30-09-2010 09:26:01 11.4 C 7.8 g/m*3 11.4 C 0 km/h
49 30-09-2010 09:38:01 11.5 C 7.75 g/m*3 11.5 C 0 km/h
50 30-09-2010 09:50:02 11.5 C 7.85 g/m*3 11.5 C 0 km/h
Sensor: Nr:Datum:Temp:Abs-Feuchte:Windchill:Wind:
Aussen-T/F 51 30-09-2010 10:02:02 11.4 C 8.01 g/m*3 11.4 C 0 km/h
52 30-09-2010 10:14:02 11.4 C 8.11 g/m*3 11.4 C 0 km/h
53 30-09-2010 10:26:03 11.7 C 8.37 g/m*3 11.7 C 0 km/h
54 30-09-2010 10:38:02 11.8 C 8.42 g/m*3 11.8 C 0 km/h
55 30-09-2010 10:50:02 11.9 C 8.47 g/m*3 11.9 C 0 km/h
56 30-09-2010 11:02:02 12 C 8.42 g/m*3 12 C 0 km/h
57 30-09-2010 11:14:02 12 C 8.42 g/m*3 12 C 0 km/h
58 30-09-2010 11:26:02 11.8 C 8.42 g/m*3 11.8 C 0 km/h
59 30-09-2010 11:38:01 11.7 C 8.47 g/m*3 11.7 C 0 km/h
60 30-09-2010 11:50:02 11.8 C 8.63 g/m*3 11.8 C 0 km/h
61 30-09-2010 12:02:01 11.9 C 8.79 g/m*3 11.9 C 0 km/h
62 30-09-2010 12:14:01 11.9 C 8.9 g/m*3 11.9 C 0 km/h
63 30-09-2010 12:26:02 12 C 8.95 g/m*3 12 C 0 km/h
64 30-09-2010 12:38:02 12.1 C 9.01 g/m*3 12.1 C 0 km/h
65 30-09-2010 12:50:02 12 C 9.06 g/m*3 12 C 0 km/h
66 30-09-2010 13:02:02 12.4 C 9.4 g/m*3 12.4 C 0 km/h
67 30-09-2010 13:14:02 12.6 C 9.51 g/m*3 12.6 C 0 km/h
68 30-09-2010 13:26:02 12.6 C 9.51 g/m*3 12.6 C 0 km/h
69 30-09-2010 13:38:02 12.6 C 9.62 g/m*3 12.6 C 0 km/h
70 30-09-2010 13:50:01 12.7 C 9.68 g/m*3 12.7 C 0 km/h
71 30-09-2010 14:02:02 12.9 C 9.81 g/m*3 12.9 C 0 km/h
72 30-09-2010 14:14:02 13 C 9.87 g/m*3 13 C 0 km/h
73 30-09-2010 14:26:01 12.8 C 9.86 g/m*3 12.8 C 0 km/h
74 30-09-2010 14:38:01 12.9 C 9.92 g/m*3 12.9 C 0 km/h
75 30-09-2010 14:50:01 13.1 C 10.04 g/m*3 13.1 C 0 km/h
Sensor: Nr:Datum:Temp:Abs-Feuchte:Windchill:Wind:
Aussen-T/F 76 30-09-2010 15:02:02 13.2 C 10.1 g/m*3 13.2 C 0 km/h
77 30-09-2010 15:14:03 13.2 C 10.1 g/m*3 13.2 C 0 km/h
78 30-09-2010 15:26:01 13.4 C 10.23 g/m*3 13.4 C 0 km/h
79 30-09-2010 15:38:01 13.3 C 10.17 g/m*3 13.3 C 0 km/h
80 30-09-2010 15:50:01 13.2 C 9.99 g/m*3 13.2 C 0 km/h
81 30-09-2010 16:02:01 13.5 C 10.29 g/m*3 13.5 C 0 km/h
82 30-09-2010 16:14:01 13.5 C 10.29 g/m*3 13.5 C 0 km/h
83 30-09-2010 16:26:02 13.6 C 10.24 g/m*3 13.6 C 0 km/h
84 30-09-2010 16:38:01 13.3 C 10.05 g/m*3 13.3 C 0 km/h
85 30-09-2010 16:50:03 13.1 C 9.93 g/m*3 13.1 C 0 km/h
86 30-09-2010 17:02:02 13.1 C 9.93 g/m*3 13.1 C 0 km/h
87 30-09-2010 17:14:02 13 C 9.98 g/m*3 13 C 0 km/h
88 30-09-2010 17:26:02 13 C 9.98 g/m*3 13 C 0 km/h
89 30-09-2010 17:38:02 12.9 C 10.03 g/m*3 12.9 C 0 km/h
90 30-09-2010 17:50:02 12.8 C 9.97 g/m*3 12.8 C 0 km/h
91 30-09-2010 18:02:02 12.7 C 9.91 g/m*3 12.7 C 0 km/h
92 30-09-2010 18:14:02 12.5 C 9.78 g/m*3 12.5 C 0 km/h
93 30-09-2010 18:26:02 12.5 C 9.78 g/m*3 12.5 C 0 km/h
94 30-09-2010 18:38:02 12.4 C 9.83 g/m*3 12.4 C 0 km/h
95 30-09-2010 18:50:01 12.3 C 9.77 g/m*3 12.3 C 0 km/h
96 30-09-2010 19:02:02 12.2 C 9.71 g/m*3 12.2 C 0 km/h
97 30-09-2010 19:14:02 12.1 C 9.76 g/m*3 12.1 C 0 km/h
98 30-09-2010 19:26:02 12.1 C 9.76 g/m*3 12.1 C 0 km/h
99 30-09-2010 19:38:02 12.2 C 9.82 g/m*3 12.2 C 0 km/h
100 30-09-2010 19:50:02 12.1 C 9.87 g/m*3 12.1 C 0 km/h
Sensor: Nr:Datum:Temp:Abs-Feuchte:Windchill:Wind:
Aussen-T/F 101 30-09-2010 20:02:02 12.2 C 9.93 g/m*3 12.2 C 0 km/h
102 30-09-2010 20:14:02 12.2 C 9.93 g/m*3 12.2 C 0 km/h
103 30-09-2010 20:26:02 12.1 C 9.87 g/m*3 12.1 C 0 km/h
104 30-09-2010 20:38:01 12.1 C 9.87 g/m*3 12.1 C 0 km/h
105 30-09-2010 20:50:02 12.2 C 10.04 g/m*3 12.2 C 0 km/h
106 30-09-2010 21:02:01 12.1 C 9.97 g/m*3 12.1 C 0 km/h
107 30-09-2010 21:14:01 12.1 C 9.97 g/m*3 12.1 C 0 km/h
108 30-09-2010 21:26:02 12.1 C 9.97 g/m*3 12.1 C 0 km/h
109 30-09-2010 21:38:01 12.1 C 9.97 g/m*3 12.1 C 0 km/h
110 30-09-2010 21:50:02 12 C 9.91 g/m*3 12 C 0 km/h
111 30-09-2010 22:02:02 12 C 9.91 g/m*3 12 C 0 km/h
112 30-09-2010 22:14:02 12 C 9.91 g/m*3 12 C 0 km/h
113 30-09-2010 22:26:02 11.9 C 9.96 g/m*3 11.9 C 0 km/h
114 30-09-2010 22:38:02 11.9 C 9.96 g/m*3 11.9 C 0 km/h
115 30-09-2010 22:50:01 12 C 9.91 g/m*3 12 C 0 km/h
116 30-09-2010 23:03:03 12 C 9.91 g/m*3 12 C 0 km/h
117 30-09-2010 23:15:03 11.9 C 9.96 g/m*3 11.9 C 0 km/h
118 30-09-2010 23:27:03 12 C 10.02 g/m*3 12 C 0 km/h
119 30-09-2010 23:39:03 12.1 C 10.08 g/m*3 12.1 C 0 km/h
120 30-09-2010 23:51:03 12 C 10.02 g/m*3 12 C 0 km/h
121 01-10-2010 00:03:03 12.1 C 10.08 g/m*3 12.1 C 0 km/h
122 01-10-2010 00:15:03 12 C 10.02 g/m*3 12 C 0 km/h
123 01-10-2010 00:27:03 12.1 C 10.08 g/m*3 12.1 C 0 km/h
124 01-10-2010 00:39:03 12.1 C 10.08 g/m*3 12.1 C 0 km/h
125 01-10-2010 00:51:03 11.8 C 10 g/m*3 11.8 C 0 km/h
Sensor: Nr:Datum:Temp:Abs-Feuchte:Windchill:Wind:
Aussen-T/F 126 01-10-2010 01:03:03 11.6 C 9.87 g/m*3 11.6 C 0 km/h
127 01-10-2010 01:15:04 11.7 C 9.94 g/m*3 11.7 C 0 km/h
128 01-10-2010 01:27:04 11.6 C 9.87 g/m*3 11.6 C 0 km/h
129 01-10-2010 01:39:04 11.5 C 9.81 g/m*3 11.5 C 0 km/h
130 01-10-2010 01:51:04 11.5 C 9.81 g/m*3 11.5 C 0 km/h
131 01-10-2010 02:03:04 11.5 C 9.81 g/m*3 11.5 C 0 km/h
132 01-10-2010 02:15:04 11.4 C 9.75 g/m*3 11.4 C 0 km/h
133 01-10-2010 02:27:04 11.4 C 9.75 g/m*3 11.4 C 0 km/h
134 01-10-2010 02:39:04 11.4 C 9.75 g/m*3 11.4 C 0 km/h
135 01-10-2010 02:51:04 11.5 C 9.81 g/m*3 11.5 C 0 km/h
136 01-10-2010 03:03:04 11.5 C 9.81 g/m*3 11.5 C 0 km/h
137 01-10-2010 03:15:04 11.5 C 9.81 g/m*3 11.5 C 0 km/h
138 01-10-2010 03:27:04 11.5 C 9.81 g/m*3 11.5 C 0 km/h
139 01-10-2010 03:39:04 11.5 C 9.81 g/m*3 11.5 C 0 km/h
140 01-10-2010 03:51:04 11.8 C 10 g/m*3 11.8 C 0 km/h
141 01-10-2010 04:03:04 11.7 C 9.94 g/m*3 11.7 C 0 km/h
142 01-10-2010 04:15:04 11.7 C 9.94 g/m*3 11.7 C 0 km/h
143 01-10-2010 04:27:04 11.7 C 9.94 g/m*3 11.7 C 0 km/h
144 01-10-2010 04:39:04 11.7 C 9.94 g/m*3 11.7 C 0 km/h
145 01-10-2010 04:51:04 11.7 C 9.94 g/m*3 11.7 C 0 km/h
146 01-10-2010 05:03:04 11.7 C 9.94 g/m*3 11.7 C 0 km/h
147 01-10-2010 05:15:04 11.7 C 9.94 g/m*3 11.7 C 0 km/h
148 01-10-2010 05:27:04 11.7 C 9.94 g/m*3 11.7 C 0 km/h
149 01-10-2010 05:39:04 11.5 C 9.81 g/m*3 11.5 C 0 km/h
150 01-10-2010 05:51:05 11.5 C 9.81 g/m*3 11.5 C 0 km/h
Sensor: Nr:Datum:Temp:Abs-Feuchte:Windchill:Wind:
Aussen-T/F 151 01-10-2010 06:03:05 11.4 C 9.75 g/m*3 11.4 C 0 km/h
152 01-10-2010 06:15:05 11.4 C 9.75 g/m*3 11.4 C 0 km/h
153 01-10-2010 06:27:05 11.4 C 9.75 g/m*3 11.4 C 0 km/h
154 01-10-2010 06:39:05 11.4 C 9.75 g/m*3 11.4 C 0 km/h
155 01-10-2010 06:51:05 11.4 C 9.75 g/m*3 11.4 C 0 km/h
156 01-10-2010 07:03:05 11.3 C 9.69 g/m*3 11.3 C 0 km/h
157 01-10-2010 07:15:02 11.3 C 9.69 g/m*3 11.3 C 0 km/h
158 01-10-2010 07:27:02 11 C 9.51 g/m*3 11 C 0 km/h
159 01-10-2010 07:39:02 10.8 C 9.39 g/m*3 10.8 C 0 km/h
160 01-10-2010 07:51:02 10.6 C 9.27 g/m*3 10.6 C 0 km/h
161 01-10-2010 08:03:02 10.4 C 9.16 g/m*3 10.4 C 0 km/h
162 01-10-2010 08:15:02 10.3 C 9.1 g/m*3 10.3 C 0 km/h
163 01-10-2010 08:27:02 10.2 C 9.04 g/m*3 10.2 C 0 km/h
164 01-10-2010 08:39:02 10.2 C 9.04 g/m*3 10.2 C 0 km/h
165 01-10-2010 08:51:02 10.4 C 9.16 g/m*3 10.4 C 0 km/h
166 01-10-2010 09:03:02 10.7 C 9.33 g/m*3 10.7 C 0 km/h
167 01-10-2010 09:15:01 11.1 C 9.57 g/m*3 11.1 C 0 km/h
168 01-10-2010 09:27:01 11.3 C 9.69 g/m*3 11.3 C 0 km/h
169 01-10-2010 09:39:02 11.4 C 9.75 g/m*3 11.4 C 0 km/h
170 01-10-2010 09:51:02 11.7 C 9.94 g/m*3 11.7 C 0 km/h
171 01-10-2010 10:03:02 11.7 C 9.94 g/m*3 11.7 C 0 km/h
172 01-10-2010 10:15:02 11.7 C 9.83 g/m*3 11.7 C 0 km/h
173 01-10-2010 10:27:02 11.6 C 9.56 g/m*3 11.6 C 0 km/h
174 01-10-2010 10:39:02 11.7 C 9.52 g/m*3 11.7 C 0 km/h
175 01-10-2010 10:51:02 11.9 C 9.32 g/m*3 11.9 C 0 km/h
Sensor: Nr:Datum:Temp:Abs-Feuchte:Windchill:Wind:
Aussen-T/F 176 01-10-2010 11:03:02 12.1 C 9.12 g/m*3 12.1 C 0 km/h
177 01-10-2010 11:15:02 12.2 C 8.85 g/m*3 12.2 C 0 km/h
178 01-10-2010 11:27:02 12.5 C 8.91 g/m*3 12.5 C 0 km/h
179 01-10-2010 11:39:02 12.5 C 8.69 g/m*3 12.5 C 0 km/h
180 01-10-2010 11:51:02 13 C 8.62 g/m*3 13 C 0 km/h
181 01-10-2010 12:03:02 12.8 C 8.51 g/m*3 12.8 C 0 km/h
182 01-10-2010 12:15:02 12.8 C 8.62 g/m*3 12.8 C 0 km/h
183 01-10-2010 12:27:02 12.7 C 8.46 g/m*3 12.7 C 0 km/h
184 01-10-2010 12:39:02 12.4 C 8.41 g/m*3 12.4 C 0 km/h
185 01-10-2010 12:51:02 12.7 C 8.46 g/m*3 12.7 C 0 km/h
186 01-10-2010 13:03:01 12.8 C 8.4 g/m*3 12.8 C 0 km/h
187 01-10-2010 13:15:02 13.3 C 8.32 g/m*3 13.3 C 0 km/h
188 01-10-2010 13:27:02 13.4 C 8.14 g/m*3 13.4 C 0 km/h
189 01-10-2010 13:39:01 13.1 C 7.76 g/m*3 13.1 C 0 km/h
190 01-10-2010 13:51:02 13.3 C 7.97 g/m*3 13.3 C 0 km/h
191 01-10-2010 14:03:01 13.1 C 7.87 g/m*3 13.1 C 0 km/h
192 01-10-2010 14:15:01 13.2 C 8.04 g/m*3 13.2 C 0 km/h
193 01-10-2010 14:27:01 13.3 C 7.86 g/m*3 13.3 C 0 km/h
194 01-10-2010 14:39:02 13.2 C 7.92 g/m*3 13.2 C 0 km/h
195 01-10-2010 14:51:02 13.8 C 7.98 g/m*3 13.8 C 0 km/h
196 01-10-2010 15:03:02 14.4 C 7.91 g/m*3 14.4 C 0 km/h
197 01-10-2010 15:15:02 15.2 C 7.92 g/m*3 15.2 C 0 km/h
198 01-10-2010 15:27:02 15.3 C 7.7 g/m*3 15.3 C 0 km/h
199 01-10-2010 15:39:02 15.7 C 7.76 g/m*3 15.7 C 0 km/h
200 01-10-2010 15:51:02 15.9 C 7.58 g/m*3 15.9 C 0 km/h
Sensor: Nr:Datum:Temp:Abs-Feuchte:Windchill:Wind:
Aussen-T/F 201 01-10-2010 16:03:02 16 C 7.49 g/m*3 16 C 0 km/h
202 01-10-2010 16:15:02 16.2 C 7.17 g/m*3 16.2 C 0 km/h
203 01-10-2010 16:27:02 17.1 C 7.42 g/m*3 17.1 C 0 km/h
204 01-10-2010 16:39:02 17.2 C 7.91 g/m*3 17.2 C 0 km/h
205 01-10-2010 16:51:02 17.2 C 8.05 g/m*3 17.2 C 0 km/h
206 01-10-2010 17:03:02 17.5 C 7.9 g/m*3 17.5 C 0 km/h
207 01-10-2010 17:15:02 16.6 C 8.19 g/m*3 16.6 C 0 km/h
208 01-10-2010 17:27:02 16 C 8.31 g/m*3 16 C 0 km/h
209 01-10-2010 17:39:02 15.4 C 8.54 g/m*3 15.4 C 0 km/h
210 01-10-2010 17:51:02 15.2 C 8.7 g/m*3 15.2 C 0 km/h
211 01-10-2010 18:03:02 14.8 C 8.74 g/m*3 14.8 C 0 km/h
212 01-10-2010 18:15:02 14.7 C 8.94 g/m*3 14.7 C 0 km/h
213 01-10-2010 18:27:02 14.5 C 8.83 g/m*3 14.5 C 0 km/h
214 01-10-2010 18:39:01 14.1 C 8.74 g/m*3 14.1 C 0 km/h
215 01-10-2010 18:51:02 13.6 C 8.71 g/m*3 13.6 C 0 km/h
216 01-10-2010 19:03:01 12.8 C 8.62 g/m*3 12.8 C 0 km/h
217 01-10-2010 19:15:02 12.5 C 8.58 g/m*3 12.5 C 0 km/h
218 01-10-2010 19:27:02 12.2 C 8.52 g/m*3 12.2 C 0 km/h
219 01-10-2010 19:39:02 11.8 C 8.53 g/m*3 11.8 C 0 km/h
220 01-10-2010 19:51:02 11.6 C 8.52 g/m*3 11.6 C 0 km/h
221 01-10-2010 20:03:02 11.4 C 8.42 g/m*3 11.4 C 0 km/h
222 01-10-2010 20:15:02 11.3 C 8.47 g/m*3 11.3 C 0 km/h
223 01-10-2010 20:27:02 11.2 C 8.51 g/m*3 11.2 C 0 km/h
224 01-10-2010 20:39:02 11.2 C 8.51 g/m*3 11.2 C 0 km/h
225 01-10-2010 20:51:01 11.2 C 8.62 g/m*3 11.2 C 0 km/h
Sensor: Nr:Datum:Temp:Abs-Feuchte:Windchill:Wind:
Aussen-T/F 226 01-10-2010 21:03:02 11.1 C 8.56 g/m*3 11.1 C 0 km/h
227 01-10-2010 21:15:01 11 C 8.51 g/m*3 11 C 0 km/h
228 01-10-2010 21:27:01 10.8 C 8.5 g/m*3 10.8 C 0 km/h
229 01-10-2010 21:39:01 10.7 C 8.55 g/m*3 10.7 C 0 km/h
230 01-10-2010 21:51:01 10.7 C 8.55 g/m*3 10.7 C 0 km/h
231 01-10-2010 22:03:02 10.8 C 8.7 g/m*3 10.8 C 0 km/h
232 01-10-2010 22:15:02 10.9 C 8.75 g/m*3 10.9 C 0 km/h
233 01-10-2010 22:27:02 11 C 8.81 g/m*3 11 C 0 km/h
234 01-10-2010 22:39:01 11.1 C 8.76 g/m*3 11.1 C 0 km/h
235 01-10-2010 22:52:04 11.1 C 8.76 g/m*3 11.1 C 0 km/h
236 01-10-2010 23:04:04 11.1 C 8.76 g/m*3 11.1 C 0 km/h
237 01-10-2010 23:16:04 11.1 C 8.76 g/m*3 11.1 C 0 km/h
238 01-10-2010 23:28:04 11 C 8.71 g/m*3 11 C 0 km/h
239 01-10-2010 23:40:04 11 C 8.71 g/m*3 11 C 0 km/h
240 01-10-2010 23:52:04 11.1 C 8.76 g/m*3 11.1 C 0 km/h
241 02-10-2010 00:04:04 11.2 C 8.82 g/m*3 11.2 C 0 km/h
242 02-10-2010 00:16:04 11.2 C 8.72 g/m*3 11.2 C 0 km/h
243 02-10-2010 00:28:04 11.2 C 8.72 g/m*3 11.2 C 0 km/h
244 02-10-2010 00:40:04 11.1 C 8.66 g/m*3 11.1 C 0 km/h
245 02-10-2010 00:52:04 10.9 C 8.65 g/m*3 10.9 C 0 km/h
246 02-10-2010 01:04:04 10.9 C 8.65 g/m*3 10.9 C 0 km/h
247 02-10-2010 01:16:04 11 C 8.71 g/m*3 11 C 0 km/h
248 02-10-2010 01:28:05 10.9 C 8.75 g/m*3 10.9 C 0 km/h
249 02-10-2010 01:40:05 11 C 8.81 g/m*3 11 C 0 km/h
250 02-10-2010 01:52:05 10.8 C 8.8 g/m*3 10.8 C 0 km/h
Sensor: Nr:Datum:Temp:Abs-Feuchte:Windchill:Wind:
Aussen-T/F 251 02-10-2010 02:04:05 10.8 C 8.8 g/m*3 10.8 C 0 km/h
252 02-10-2010 02:16:05 10.8 C 8.9 g/m*3 10.8 C 0 km/h
253 02-10-2010 02:28:05 11 C 9.01 g/m*3 11 C 0 km/h
254 02-10-2010 02:40:05 11.1 C 9.07 g/m*3 11.1 C 0 km/h
255 02-10-2010 02:52:05 11.1 C 9.07 g/m*3 11.1 C 0 km/h
256 02-10-2010 03:04:05 11.1 C 9.07 g/m*3 11.1 C 0 km/h
257 02-10-2010 03:16:05 11.1 C 9.17 g/m*3 11.1 C 0 km/h
258 02-10-2010 03:28:05 11.1 C 9.17 g/m*3 11.1 C 0 km/h
259 02-10-2010 03:40:05 11.1 C 9.17 g/m*3 11.1 C 0 km/h
260 02-10-2010 03:52:05 11.1 C 9.17 g/m*3 11.1 C 0 km/h
261 02-10-2010 04:04:05 11.1 C 9.27 g/m*3 11.1 C 0 km/h
262 02-10-2010 04:16:05 11.1 C 9.27 g/m*3 11.1 C 0 km/h
263 02-10-2010 04:28:05 11.1 C 9.27 g/m*3 11.1 C 0 km/h
264 02-10-2010 04:40:05 11.1 C 9.27 g/m*3 11.1 C 0 km/h
265 02-10-2010 04:52:05 11 C 9.21 g/m*3 11 C 0 km/h
266 02-10-2010 05:04:05 11 C 9.21 g/m*3 11 C 0 km/h
267 02-10-2010 05:16:05 11 C 9.31 g/m*3 11 C 0 km/h
268 02-10-2010 05:28:05 11 C 9.31 g/m*3 11 C 0 km/h
269 02-10-2010 05:40:05 10.9 C 9.35 g/m*3 10.9 C 0 km/h
270 02-10-2010 05:52:05 11 C 9.31 g/m*3 11 C 0 km/h
271 02-10-2010 06:04:06 11 C 9.31 g/m*3 11 C 0 km/h
272 02-10-2010 06:16:06 11 C 9.41 g/m*3 11 C 0 km/h
273 02-10-2010 06:28:06 11 C 9.41 g/m*3 11 C 0 km/h
274 02-10-2010 06:40:06 11 C 9.41 g/m*3 11 C 0 km/h
275 02-10-2010 06:52:06 11 C 9.41 g/m*3 11 C 0 km/h
Sensor: Nr:Datum:Temp:Abs-Feuchte:Windchill:Wind:
Aussen-T/F 276 02-10-2010 07:04:06 11 C 9.41 g/m*3 11 C 0 km/h
277 02-10-2010 07:16:06 11.1 C 9.47 g/m*3 11.1 C 0 km/h
278 02-10-2010 07:28:06 11.2 C 9.63 g/m*3 11.2 C 0 km/h
279 02-10-2010 07:40:03 11.2 C 9.63 g/m*3 11.2 C 0 km/h
280 02-10-2010 07:52:02 11.2 C 9.63 g/m*3 11.2 C 0 km/h
281 02-10-2010 08:04:02 11.3 C 9.69 g/m*3 11.3 C 0 km/h
282 02-10-2010 08:16:03 11.3 C 9.69 g/m*3 11.3 C 0 km/h
283 02-10-2010 08:28:03 11.4 C 9.75 g/m*3 11.4 C 0 km/h
284 02-10-2010 08:40:02 11.5 C 9.81 g/m*3 11.5 C 0 km/h
285 02-10-2010 08:52:02 11.8 C 10 g/m*3 11.8 C 0 km/h
286 02-10-2010 09:04:02 11.8 C 10 g/m*3 11.8 C 0 km/h
287 02-10-2010 09:16:02 11.8 C 10 g/m*3 11.8 C 0 km/h
288 02-10-2010 09:28:02 12 C 10.12 g/m*3 12 C 0 km/h
289 02-10-2010 09:40:02 12.1 C 10.19 g/m*3 12.1 C 0 km/h
290 02-10-2010 09:52:02 12.3 C 10.32 g/m*3 12.3 C 0 km/h
291 02-10-2010 10:04:02 12.6 C 10.51 g/m*3 12.6 C 0 km/h
292 02-10-2010 10:16:02 13 C 10.66 g/m*3 13 C 0 km/h
293 02-10-2010 10:28:02 13 C 10.66 g/m*3 13 C 0 km/h
294 02-10-2010 10:40:01 13.3 C 10.86 g/m*3 13.3 C 0 km/h
295 02-10-2010 10:52:02 13.8 C 11.08 g/m*3 13.8 C 0 km/h
296 02-10-2010 11:04:01 14 C 11.1 g/m*3 14 C 0 km/h
297 02-10-2010 11:16:01 14.4 C 11.37 g/m*3 14.4 C 0 km/h
298 02-10-2010 11:28:01 14.4 C 11.37 g/m*3 14.4 C 0 km/h
299 02-10-2010 11:40:02 14.4 C 11.25 g/m*3 14.4 C 0 km/h
300 02-10-2010 11:52:02 14.4 C 11.25 g/m*3 14.4 C 0 km/h
Sensor: Nr:Datum:Temp:Abs-Feuchte:Windchill:Wind:
Aussen-T/F 301 02-10-2010 12:04:02 14.5 C 11.32 g/m*3 14.5 C 0 km/h
302 02-10-2010 12:16:02 14.7 C 11.46 g/m*3 14.7 C 0 km/h
303 02-10-2010 12:28:02 15.2 C 11.68 g/m*3 15.2 C 0 km/h
304 02-10-2010 12:40:02 15.4 C 11.69 g/m*3 15.4 C 0 km/h
305 02-10-2010 12:52:02 15.4 C 11.43 g/m*3 15.4 C 0 km/h
306 02-10-2010 13:04:02 15.5 C 11.5 g/m*3 15.5 C 0 km/h
307 02-10-2010 13:16:02 15.6 C 11.57 g/m*3 15.6 C 0 km/h
308 02-10-2010 13:28:02 15.7 C 11.64 g/m*3 15.7 C 0 km/h
309 02-10-2010 13:40:02 15.9 C 11.65 g/m*3 15.9 C 0 km/h
310 02-10-2010 13:52:01 16 C 11.31 g/m*3 16 C 0 km/h
311 02-10-2010 14:04:01 15.7 C 11.24 g/m*3 15.7 C 0 km/h
312 02-10-2010 14:16:02 15.4 C 11.17 g/m*3 15.4 C 0 km/h
313 02-10-2010 14:28:02 15.4 C 11.3 g/m*3 15.4 C 0 km/h
314 02-10-2010 14:40:01 15.7 C 11.64 g/m*3 15.7 C 0 km/h
315 02-10-2010 14:52:03 16 C 11.72 g/m*3 16 C 0 km/h
316 02-10-2010 15:04:02 15.8 C 11.71 g/m*3 15.8 C 0 km/h
317 02-10-2010 15:16:02 15.9 C 11.65 g/m*3 15.9 C 0 km/h
318 02-10-2010 15:28:02 16 C 11.44 g/m*3 16 C 0 km/h
319 02-10-2010 15:40:02 16.2 C 11.31 g/m*3 16.2 C 0 km/h
320 02-10-2010 15:52:02 16.1 C 11.24 g/m*3 16.1 C 0 km/h
321 02-10-2010 16:04:02 16.2 C 11.31 g/m*3 16.2 C 0 km/h
322 02-10-2010 16:16:02 16.1 C 10.97 g/m*3 16.1 C 0 km/h
323 02-10-2010 16:28:02 16.2 C 11.03 g/m*3 16.2 C 0 km/h
324 02-10-2010 16:40:02 16.4 C 11.17 g/m*3 16.4 C 0 km/h
325 02-10-2010 16:52:02 16.3 C 10.96 g/m*3 16.3 C 0 km/h
Sensor: Nr:Datum:Temp:Abs-Feuchte:Windchill:Wind:
Aussen-T/F 326 02-10-2010 17:04:01 16.4 C 11.03 g/m*3 16.4 C 0 km/h
327 02-10-2010 17:16:01 16.3 C 10.82 g/m*3 16.3 C 0 km/h
328 02-10-2010 17:28:01 16.3 C 10.96 g/m*3 16.3 C 0 km/h
329 02-10-2010 17:40:02 16.3 C 10.96 g/m*3 16.3 C 0 km/h
330 02-10-2010 17:52:02 16.1 C 10.83 g/m*3 16.1 C 0 km/h
331 02-10-2010 18:04:02 15.9 C 10.97 g/m*3 15.9 C 0 km/h
332 02-10-2010 18:16:02 15.6 C 10.91 g/m*3 15.6 C 0 km/h
333 02-10-2010 18:28:02 15.3 C 10.84 g/m*3 15.3 C 0 km/h
334 02-10-2010 18:40:02 15.2 C 10.9 g/m*3 15.2 C 0 km/h
335 02-10-2010 18:52:02 15.1 C 10.97 g/m*3 15.1 C 0 km/h
336 02-10-2010 19:04:02 15 C 10.9 g/m*3 15 C 0 km/h
337 02-10-2010 19:16:02 15 C 10.9 g/m*3 15 C 0 km/h
338 02-10-2010 19:28:02 15 C 10.9 g/m*3 15 C 0 km/h
339 02-10-2010 19:40:02 14.9 C 10.96 g/m*3 14.9 C 0 km/h
340 02-10-2010 19:52:01 14.8 C 11.02 g/m*3 14.8 C 0 km/h
341 02-10-2010 20:04:01 14.8 C 11.02 g/m*3 14.8 C 0 km/h
342 02-10-2010 20:16:02 14.9 C 11.22 g/m*3 14.9 C 0 km/h
343 02-10-2010 20:28:02 14.9 C 11.22 g/m*3 14.9 C 0 km/h
344 02-10-2010 20:40:01 14.8 C 11.02 g/m*3 14.8 C 0 km/h
345 02-10-2010 20:52:01 14.6 C 11.01 g/m*3 14.6 C 0 km/h
346 02-10-2010 21:04:01 14.6 C 11.01 g/m*3 14.6 C 0 km/h
347 02-10-2010 21:16:02 14.5 C 10.94 g/m*3 14.5 C 0 km/h
348 02-10-2010 21:28:02 14.5 C 11.07 g/m*3 14.5 C 0 km/h
349 02-10-2010 21:40:01 14.5 C 11.07 g/m*3 14.5 C 0 km/h
350 02-10-2010 21:53:02 14.4 C 11 g/m*3 14.4 C 0 km/h
Sensor: Nr:Datum:Temp:Abs-Feuchte:Windchill:Wind:
Aussen-T/F 351 02-10-2010 22:05:02 14.4 C 11 g/m*3 14.4 C 0 km/h
352 02-10-2010 22:17:02 14.4 C 11.13 g/m*3 14.4 C 0 km/h
353 02-10-2010 22:29:02 14.4 C 11.13 g/m*3 14.4 C 0 km/h
354 02-10-2010 22:41:02 14.5 C 11.19 g/m*3 14.5 C 0 km/h
355 02-10-2010 22:53:02 14.7 C 11.33 g/m*3 14.7 C 0 km/h
356 02-10-2010 23:05:02 14.7 C 11.33 g/m*3 14.7 C 0 km/h
357 02-10-2010 23:17:02 14.6 C 11.14 g/m*3 14.6 C 0 km/h
358 02-10-2010 23:29:03 14.5 C 11.07 g/m*3 14.5 C 0 km/h
359 02-10-2010 23:41:03 14.5 C 11.07 g/m*3 14.5 C 0 km/h
360 02-10-2010 23:53:03 14.5 C 11.07 g/m*3 14.5 C 0 km/h

Legende:
   Min
   Max


Maximal/Minimal-Werte vom 23.02.2003 - 30.09.2020

Sensor Min Max Avg
Temp
(Aussen-T/F)
-16.4 °C
20-12-2009  01:30:01
40.4 °C
25-07-2019  16:20:00
11.32 °C

Die Daten stammen von einer Davis Vantage Pro 2 Wetter-Station und werden unter Linux mit der Software wview2wettercgi und aufbereitet. Alle Angaben erfolgen ohne Gewähr für ihre Vollständigkeit oder Richtigkeit.
Kontakt: Rainer Krienke krienke@uni-koblenz.de . Meine Webseiten an der Uni Koblenz oder privat.
Version: $Revision: 0.78 $